< < Back
Terminal Aerodrome Forecast


Current Version              Previous Versions:   1  2  3  4  5  6  7  8  9  

Terminal Aerodrome Forecast

764
FTUS42 KFFC 010500 RRA
TAFATL
TAF
KATL 010543Z 0106/0212 32017G28KT P6SM VCSH FEW035 BKN060
     FM011000 33020G30KT P6SM BKN025
     FM011600 32022G35KT P6SM BKN040
     FM012000 32020G32KT P6SM SCT040
     FM020000 33015G25KT P6SM SCT070
     FM020600 32012KT P6SM SKC=

Latest METAR

893
SAUS70 KWBC 011300 RRM
MTRATL
METAR KATL 011252Z 33021G32KT 10SM OVC030 04/M03 A2997 RMK AO2 PK WND
31039/1203 SLP152 BINOVC T00441028 $


USA.gov is the U.S. government's official web portal to all federal, state and local government web resources and services.